»·PEaware :: N235B KSNA-KSNA

N235B :: KSNA-KSNA

FLIGHT INFORMATION

Flight Status: Arrived
Operator: Privately registered:
United States
More flights under this callsign
Pilot: Jason D. (29273)
Aircraft: CESSNA 172 SKYHAWK
(C172)
More flights by this aircraft type
Origin: KSNA John Wayne-Orange Co
United States
Destination: KSNA John Wayne-Orange Co
United States
More flights between these airports :: More routes between these airports
Route: +SLI
File this flight plan on PilotEdge
Remarks:
Altitude:
(Current/Filed)
3,000ft
Speed:
(Current/Filed)
110kts
Departed: 08-Aug-20 09:14 PM
Arrived: 08-Aug-20 09:39 PM
Distance/Time
Traveled:
0nm/0:25
Distance/Time
To Go:
Arrived

Flight Plot

Page will automatically refresh every two minutes.


Map Options




Map Legend


Flown Route
Filed Route
Departure Airport
Arrival Airport
Navaid (VOR, NDB)
Fix

Horizontal Profiles

Position Reports

Time Latitude Longitude Heading Altitude Ground
Speed
08-Aug-20 20:03 33.676205 -117.871104 212 60ft 0kts
08-Aug-20 20:04 33.676205 -117.871104 212 60ft 0kts
08-Aug-20 20:05 33.676205 -117.871104 212 60ft 0kts
08-Aug-20 20:06 33.676205 -117.871104 212 60ft 0kts
08-Aug-20 20:07 33.676205 -117.871104 212 60ft 0kts
08-Aug-20 20:08 33.676205 -117.871104 212 60ft 0kts
08-Aug-20 20:09 33.676205 -117.871104 212 60ft 0kts
08-Aug-20 20:10 33.676205 -117.871104 212 60ft 0kts
08-Aug-20 20:11 33.676205 -117.871104 212 60ft 0kts
08-Aug-20 20:12 33.676205 -117.871104 212 60ft 0kts
08-Aug-20 20:13 33.676205 -117.871104 212 60ft 0kts
08-Aug-20 20:14 33.676205 -117.871104 212 60ft 0kts
08-Aug-20 20:15 33.676205 -117.871104 212 60ft 0kts
08-Aug-20 20:16 33.676205 -117.871104 212 60ft 0kts
08-Aug-20 20:17 33.676205 -117.871104 212 60ft 0kts
08-Aug-20 20:18 33.676205 -117.871104 212 60ft 0kts
08-Aug-20 20:19 33.676205 -117.871104 212 60ft 0kts
08-Aug-20 20:20 33.676205 -117.871104 212 60ft 0kts
08-Aug-20 20:21 33.676205 -117.871104 212 60ft 0kts
08-Aug-20 20:22 33.676205 -117.871104 212 60ft 0kts
08-Aug-20 20:23 33.676205 -117.871104 212 60ft 0kts
08-Aug-20 20:24 33.676205 -117.871104 212 60ft 0kts
08-Aug-20 20:25 33.676205 -117.871104 212 60ft 0kts
08-Aug-20 20:26 33.676205 -117.871104 212 60ft 0kts
08-Aug-20 20:27 33.676205 -117.871104 212 60ft 0kts
08-Aug-20 20:28 33.676205 -117.871104 212 60ft 0kts
08-Aug-20 20:29 33.676205 -117.871104 212 60ft 0kts
08-Aug-20 20:30 33.676205 -117.871104 212 60ft 0kts
08-Aug-20 20:31 33.676205 -117.871104 212 60ft 0kts
08-Aug-20 20:32 33.676205 -117.871104 212 60ft 0kts
08-Aug-20 20:33 33.676205 -117.871104 212 60ft 0kts
08-Aug-20 20:34 33.676205 -117.871104 212 60ft 0kts
08-Aug-20 20:35 33.676205 -117.871104 212 60ft 0kts
08-Aug-20 20:36 33.676205 -117.871104 212 60ft 0kts
08-Aug-20 20:37 33.676205 -117.871104 212 60ft 0kts
08-Aug-20 20:38 33.676205 -117.871104 212 60ft 0kts
08-Aug-20 20:39 33.676205 -117.871104 212 60ft 0kts
08-Aug-20 20:40 33.676205 -117.871104 212 60ft 0kts
08-Aug-20 20:41 33.676205 -117.871104 212 60ft 0kts
08-Aug-20 20:42 33.676205 -117.871104 212 60ft 0kts
08-Aug-20 20:43 33.676205 -117.871104 212 60ft 0kts
08-Aug-20 20:44 33.676205 -117.871104 212 60ft 0kts
08-Aug-20 20:45 33.676205 -117.871104 212 60ft 0kts
08-Aug-20 20:46 33.676205 -117.871104 212 60ft 0kts
08-Aug-20 20:47 33.676205 -117.871104 212 60ft 0kts
08-Aug-20 20:48 33.676205 -117.871104 212 60ft 0kts
08-Aug-20 20:49 33.676205 -117.871104 212 60ft 0kts
08-Aug-20 20:50 33.676205 -117.871104 212 60ft 0kts
08-Aug-20 20:51 33.676205 -117.871104 212 60ft 0kts
08-Aug-20 20:52 33.676205 -117.871104 212 60ft 0kts
08-Aug-20 20:53 33.676205 -117.871104 212 60ft 0kts
08-Aug-20 20:54 33.676205 -117.871104 212 60ft 0kts
08-Aug-20 20:55 33.676205 -117.871104 212 60ft 0kts
08-Aug-20 20:56 33.676205 -117.871104 212 60ft 0kts
08-Aug-20 20:57 33.676205 -117.871104 212 60ft 0kts
08-Aug-20 20:58 33.676205 -117.871104 212 60ft 0kts
08-Aug-20 20:59 33.676205 -117.871104 212 60ft 0kts
08-Aug-20 21:00 33.676205 -117.871104 212 60ft 0kts
08-Aug-20 21:01 33.676205 -117.871104 212 60ft 0kts
08-Aug-20 21:02 33.676205 -117.871104 212 60ft 0kts
08-Aug-20 21:03 33.676205 -117.871104 212 60ft 0kts
08-Aug-20 21:04 33.676205 -117.871104 212 60ft 0kts
08-Aug-20 21:05 33.676205 -117.871104 212 60ft 0kts
08-Aug-20 21:06 33.676205 -117.871104 212 60ft 0kts
08-Aug-20 21:07 33.676205 -117.871104 212 60ft 0kts
08-Aug-20 21:08 33.676205 -117.871104 212 60ft 0kts
08-Aug-20 21:09 33.676205 -117.871104 212 60ft 0kts
08-Aug-20 21:10 33.676205 -117.871104 212 60ft 0kts
08-Aug-20 21:11 33.679281 -117.868071 23 60ft 37kts
08-Aug-20 21:12 33.681155 -117.866249 113 60ft 0kts
08-Aug-20 21:13 33.678170 -117.867271 205 60ft 63kts
08-Aug-20 21:14 33.661557 -117.881593 234 864ft 67kts
08-Aug-20 21:15 33.649716 -117.899165 230 1654ft 61kts
08-Aug-20 21:16 33.642352 -117.916405 320 2281ft 69kts
08-Aug-20 21:17 33.660206 -117.913214 9 2914ft 65kts
08-Aug-20 21:18 33.685029 -117.906609 9 2999ft 122kts
08-Aug-20 21:19 33.717857 -117.898576 15 3063ft 132kts
08-Aug-20 21:20 33.752040 -117.888279 11 3074ft 135kts
08-Aug-20 21:21 33.788080 -117.875671 26 3094ft 134kts
08-Aug-20 21:22 33.821793 -117.860522 18 2980ft 122kts
08-Aug-20 21:23 33.852314 -117.843735 28 3003ft 117kts
08-Aug-20 21:24 33.882668 -117.827952 26 2983ft 120kts
08-Aug-20 21:25 33.912884 -117.812855 42 2973ft 117kts
08-Aug-20 21:26 33.914957 -117.774408 92 2991ft 118kts
08-Aug-20 21:27 33.891198 -117.762920 193 3020ft 110kts
08-Aug-20 21:29 33.861506 -117.767608 191 3153ft 85kts
08-Aug-20 21:30 33.838949 -117.768962 201 3015ft 80kts
08-Aug-20 21:31 33.818415 -117.779232 210 2886ft 82kts
08-Aug-20 21:32 33.798550 -117.790869 214 2743ft 79kts
08-Aug-20 21:33 33.780796 -117.801337 206 2549ft 69kts
08-Aug-20 21:34 33.763875 -117.812415 207 2160ft 74kts
08-Aug-20 21:35 33.744907 -117.823933 216 1554ft 80kts
08-Aug-20 21:36 33.726668 -117.836405 213 1123ft 75kts
08-Aug-20 21:37 33.707893 -117.847796 212 718ft 71kts
08-Aug-20 21:38 33.691666 -117.858387 212 326ft 63kts
08-Aug-20 21:39 33.677708 -117.867372 208 60ft 36kts
08-Aug-20 21:40 33.674400 -117.868469 152 60ft 0kts
08-Aug-20 21:41 33.673230 -117.866775 200 60ft 25kts
08-Aug-20 21:42 33.670458 -117.868735 181 60ft 0kts
08-Aug-20 21:43 33.670458 -117.868735 181 60ft 0kts
08-Aug-20 21:44 33.670458 -117.868735 181 60ft 0kts
08-Aug-20 21:45 33.670458 -117.868735 181 60ft 0kts
08-Aug-20 21:46 33.670458 -117.868735 181 60ft 0kts
08-Aug-20 21:47 33.670458 -117.868735 181 60ft 0kts

Navigation Log

Ident Type
Flight plan parsing failed, navigation log unavailable